sensor_id;sensor_type;location;lat;lon;timestamp;pressure;altitude;pressure_sealevel;temperature;humidity
21988;BME280;11158;53.404;-1.510;2023-12-07T00:01:46;100351.84;;;8.42;54.20
21988;BME280;11158;53.404;-1.510;2023-12-07T00:04:31;100353.69;;;8.33;54.86
21988;BME280;11158;53.404;-1.510;2023-12-07T00:07:15;100348.09;;;8.03;55.04
21988;BME280;11158;53.404;-1.510;2023-12-07T00:09:59;100333.97;;;7.29;57.06
21988;BME280;11158;53.404;-1.510;2023-12-07T00:12:43;100340.03;;;6.88;58.85
21988;BME280;11158;53.404;-1.510;2023-12-07T00:15:27;100330.44;;;7.04;58.23
21988;BME280;11158;53.404;-1.510;2023-12-07T00:18:12;100333.16;;;7.28;57.44
21988;BME280;11158;53.404;-1.510;2023-12-07T00:20:56;100337.16;;;7.57;57.42
21988;BME280;11158;53.404;-1.510;2023-12-07T00:23:42;100328.50;;;7.63;57.32
21988;BME280;11158;53.404;-1.510;2023-12-07T00:26:26;100329.81;;;7.75;56.53
21988;BME280;11158;53.404;-1.510;2023-12-07T00:29:10;100326.50;;;7.32;57.44
21988;BME280;11158;53.404;-1.510;2023-12-07T00:31:54;100317.00;;;7.13;58.35
21988;BME280;11158;53.404;-1.510;2023-12-07T00:34:38;100319.44;;;6.90;58.89
21988;BME280;11158;53.404;-1.510;2023-12-07T00:37:23;100313.16;;;7.00;58.72
21988;BME280;11158;53.404;-1.510;2023-12-07T00:40:07;100303.31;;;6.84;59.17
21988;BME280;11158;53.404;-1.510;2023-12-07T00:42:53;100297.16;;;6.67;59.68
21988;BME280;11158;53.404;-1.510;2023-12-07T00:45:37;100296.06;;;6.94;59.34
21988;BME280;11158;53.404;-1.510;2023-12-07T00:48:21;100294.59;;;7.65;59.65
21988;BME280;11158;53.404;-1.510;2023-12-07T00:51:05;100281.88;;;8.00;57.14
21988;BME280;11158;53.404;-1.510;2023-12-07T00:53:52;100281.69;;;8.10;57.42
21988;BME280;11158;53.404;-1.510;2023-12-07T00:56:36;100279.09;;;7.69;56.68
21988;BME280;11158;53.404;-1.510;2023-12-07T00:59:21;100268.81;;;8.22;56.37
21988;BME280;11158;53.404;-1.510;2023-12-07T01:02:06;100268.25;;;7.95;56.27
21988;BME280;11158;53.404;-1.510;2023-12-07T01:04:50;100264.97;;;7.60;56.62
21988;BME280;11158;53.404;-1.510;2023-12-07T01:07:35;100264.00;;;7.12;58.14
21988;BME280;11158;53.404;-1.510;2023-12-07T01:10:19;100271.31;;;7.43;57.64
21988;BME280;11158;53.404;-1.510;2023-12-07T01:13:03;100261.66;;;6.92;58.95
21988;BME280;11158;53.404;-1.510;2023-12-07T01:15:47;100262.66;;;7.00;59.10
21988;BME280;11158;53.404;-1.510;2023-12-07T01:18:31;100261.31;;;6.79;59.90
21988;BME280;11158;53.404;-1.510;2023-12-07T01:21:16;100265.47;;;6.98;59.73
21988;BME280;11158;53.404;-1.510;2023-12-07T01:24:00;100258.34;;;7.40;59.25
21988;BME280;11158;53.404;-1.510;2023-12-07T01:26:44;100263.59;;;6.66;60.40
21988;BME280;11158;53.404;-1.510;2023-12-07T01:29:28;100254.69;;;7.00;60.16
21988;BME280;11158;53.404;-1.510;2023-12-07T01:32:12;100252.19;;;7.14;59.28
21988;BME280;11158;53.404;-1.510;2023-12-07T01:34:57;100247.06;;;6.97;59.79
21988;BME280;11158;53.404;-1.510;2023-12-07T01:37:41;100255.03;;;7.21;59.19
21988;BME280;11158;53.404;-1.510;2023-12-07T01:40:26;100259.19;;;7.57;58.34
21988;BME280;11158;53.404;-1.510;2023-12-07T01:43:10;100249.00;;;7.68;58.49
21988;BME280;11158;53.404;-1.510;2023-12-07T01:45:56;100243.81;;;8.39;57.34
21988;BME280;11158;53.404;-1.510;2023-12-07T01:48:42;100243.19;;;8.91;55.52
21988;BME280;11158;53.404;-1.510;2023-12-07T01:51:27;100236.66;;;9.17;54.15
21988;BME280;11158;53.404;-1.510;2023-12-07T01:54:11;100232.97;;;9.18;53.89
21988;BME280;11158;53.404;-1.510;2023-12-07T01:56:55;100223.41;;;8.86;54.66
21988;BME280;11158;53.404;-1.510;2023-12-07T01:59:40;100214.00;;;8.98;54.11
21988;BME280;11158;53.404;-1.510;2023-12-07T02:02:24;100202.66;;;9.19;53.33
21988;BME280;11158;53.404;-1.510;2023-12-07T02:05:09;100188.81;;;9.00;54.24
21988;BME280;11158;53.404;-1.510;2023-12-07T02:07:53;100194.88;;;9.32;52.76
21988;BME280;11158;53.404;-1.510;2023-12-07T02:10:38;100182.06;;;9.28;52.93
21988;BME280;11158;53.404;-1.510;2023-12-07T02:13:22;100187.69;;;8.41;55.49
21988;BME280;11158;53.404;-1.510;2023-12-07T02:16:30;100191.81;;;8.97;54.85
21988;BME280;11158;53.404;-1.510;2023-12-07T02:22:03;100190.47;;;8.78;54.85
21988;BME280;11158;53.404;-1.510;2023-12-07T02:25:05;100184.63;;;8.52;56.83
21988;BME280;11158;53.404;-1.510;2023-12-07T02:27:52;100189.75;;;8.62;56.65
21988;BME280;11158;53.404;-1.510;2023-12-07T02:30:36;100182.53;;;8.70;55.80
21988;BME280;11158;53.404;-1.510;2023-12-07T02:33:21;100181.44;;;8.56;56.36
21988;BME280;11158;53.404;-1.510;2023-12-07T02:36:05;100167.78;;;8.28;57.21
21988;BME280;11158;53.404;-1.510;2023-12-07T02:38:51;100155.06;;;8.07;57.24
21988;BME280;11158;53.404;-1.510;2023-12-07T02:41:36;100147.09;;;8.38;57.27
21988;BME280;11158;53.404;-1.510;2023-12-07T02:44:22;100140.97;;;8.30;58.23
21988;BME280;11158;53.404;-1.510;2023-12-07T02:47:07;100141.81;;;8.62;57.10
21988;BME280;11158;53.404;-1.510;2023-12-07T02:49:52;100134.09;;;8.67;56.59
21988;BME280;11158;53.404;-1.510;2023-12-07T02:52:36;100132.72;;;8.94;56.17
21988;BME280;11158;53.404;-1.510;2023-12-07T02:55:20;100129.41;;;9.07;54.88
21988;BME280;11158;53.404;-1.510;2023-12-07T02:58:04;100128.63;;;9.21;54.58
21988;BME280;11158;53.404;-1.510;2023-12-07T03:00:50;100131.31;;;8.83;56.17
21988;BME280;11158;53.404;-1.510;2023-12-07T03:03:34;100127.84;;;8.97;55.52
21988;BME280;11158;53.404;-1.510;2023-12-07T03:06:18;100125.59;;;9.24;55.38
21988;BME280;11158;53.404;-1.510;2023-12-07T03:09:03;100120.69;;;9.13;54.90
21988;BME280;11158;53.404;-1.510;2023-12-07T03:11:47;100128.66;;;8.60;57.40
21988;BME280;11158;53.404;-1.510;2023-12-07T03:14:31;100114.22;;;8.92;55.50
21988;BME280;11158;53.404;-1.510;2023-12-07T03:17:15;100115.03;;;8.93;55.64
21988;BME280;11158;53.404;-1.510;2023-12-07T03:19:59;100117.88;;;8.53;57.37
21988;BME280;11158;53.404;-1.510;2023-12-07T03:22:43;100114.47;;;8.05;58.99
21988;BME280;11158;53.404;-1.510;2023-12-07T03:25:28;100106.50;;;8.05;58.69
21988;BME280;11158;53.404;-1.510;2023-12-07T03:28:12;100106.00;;;8.33;58.08
21988;BME280;11158;53.404;-1.510;2023-12-07T03:30:56;100095.31;;;7.79;59.12
21988;BME280;11158;53.404;-1.510;2023-12-07T03:33:44;100095.66;;;7.28;61.03
21988;BME280;11158;53.404;-1.510;2023-12-07T03:36:28;100083.47;;;7.50;60.97
21988;BME280;11158;53.404;-1.510;2023-12-07T03:39:17;100080.88;;;7.25;61.53
21988;BME280;11158;53.404;-1.510;2023-12-07T03:42:02;100078.81;;;7.52;61.62
21988;BME280;11158;53.404;-1.510;2023-12-07T03:44:47;100070.56;;;8.01;60.25
21988;BME280;11158;53.404;-1.510;2023-12-07T03:47:31;100066.97;;;7.94;60.73
21988;BME280;11158;53.404;-1.510;2023-12-07T03:50:15;100058.28;;;8.00;59.37
21988;BME280;11158;53.404;-1.510;2023-12-07T03:53:00;100050.44;;;7.75;59.76
21988;BME280;11158;53.404;-1.510;2023-12-07T03:55:43;100062.06;;;8.75;60.27
21988;BME280;11158;53.404;-1.510;2023-12-07T03:58:28;100051.28;;;7.99;58.81
21988;BME280;11158;53.404;-1.510;2023-12-07T04:01:12;100042.22;;;7.85;60.90
21988;BME280;11158;53.404;-1.510;2023-12-07T04:03:56;100044.69;;;7.64;60.63
21988;BME280;11158;53.404;-1.510;2023-12-07T04:06:41;100038.00;;;7.68;60.61
21988;BME280;11158;53.404;-1.510;2023-12-07T04:09:25;100032.25;;;7.87;60.62
21988;BME280;11158;53.404;-1.510;2023-12-07T04:12:10;100035.69;;;8.19;61.02
21988;BME280;11158;53.404;-1.510;2023-12-07T04:14:55;100019.59;;;8.58;58.44
21988;BME280;11158;53.404;-1.510;2023-12-07T04:17:38;100014.88;;;8.98;59.03
21988;BME280;11158;53.404;-1.510;2023-12-07T04:20:22;100016.06;;;9.26;56.88
21988;BME280;11158;53.404;-1.510;2023-12-07T04:23:06;100002.53;;;9.27;56.47
21988;BME280;11158;53.404;-1.510;2023-12-07T04:25:51;99998.19;;;9.41;56.90
21988;BME280;11158;53.404;-1.510;2023-12-07T04:28:35;99991.69;;;8.84;56.69
21988;BME280;11158;53.404;-1.510;2023-12-07T04:31:19;99984.88;;;8.67;58.25
21988;BME280;11158;53.404;-1.510;2023-12-07T04:34:05;99985.06;;;8.27;58.70
21988;BME280;11158;53.404;-1.510;2023-12-07T04:36:49;99984.28;;;8.18;59.14
21988;BME280;11158;53.404;-1.510;2023-12-07T04:39:36;99979.38;;;7.84;60.52
21988;BME280;11158;53.404;-1.510;2023-12-07T04:42:20;99968.75;;;8.22;59.48
21988;BME280;11158;53.404;-1.510;2023-12-07T04:45:04;99970.84;;;7.66;60.76
21988;BME280;11158;53.404;-1.510;2023-12-07T04:47:49;99967.31;;;7.73;60.67
21988;BME280;11158;53.404;-1.510;2023-12-07T04:50:33;99959.50;;;8.41;59.63
21988;BME280;11158;53.404;-1.510;2023-12-07T04:53:17;99958.84;;;8.54;59.51
21988;BME280;11158;53.404;-1.510;2023-12-07T04:56:01;99959.53;;;7.95;59.96
21988;BME280;11158;53.404;-1.510;2023-12-07T04:58:46;99964.06;;;7.86;62.13
21988;BME280;11158;53.404;-1.510;2023-12-07T05:01:30;99959.44;;;7.57;62.58
21988;BME280;11158;53.404;-1.510;2023-12-07T05:04:14;99955.38;;;8.15;59.85
21988;BME280;11158;53.404;-1.510;2023-12-07T05:06:59;99953.00;;;9.03;60.06
21988;BME280;11158;53.404;-1.510;2023-12-07T05:09:45;99949.31;;;8.59;58.38
21988;BME280;11158;53.404;-1.510;2023-12-07T05:12:29;99963.13;;;7.48;61.77
21988;BME280;11158;53.404;-1.510;2023-12-07T05:15:14;99963.81;;;7.42;62.98
21988;BME280;11158;53.404;-1.510;2023-12-07T05:17:59;99954.22;;;7.32;63.45
21988;BME280;11158;53.404;-1.510;2023-12-07T05:20:43;99944.06;;;7.05;64.29
21988;BME280;11158;53.404;-1.510;2023-12-07T05:23:27;99942.47;;;6.87;66.02
21988;BME280;11158;53.404;-1.510;2023-12-07T05:26:12;99938.50;;;6.83;65.40
21988;BME280;11158;53.404;-1.510;2023-12-07T05:28:56;99947.63;;;7.28;64.40
21988;BME280;11158;53.404;-1.510;2023-12-07T05:31:40;99942.47;;;8.04;63.57
21988;BME280;11158;53.404;-1.510;2023-12-07T05:34:24;99937.97;;;7.27;63.07
21988;BME280;11158;53.404;-1.510;2023-12-07T05:37:08;99936.06;;;6.74;65.36
21988;BME280;11158;53.404;-1.510;2023-12-07T05:39:52;99946.78;;;7.28;65.03
21988;BME280;11158;53.404;-1.510;2023-12-07T05:42:36;99930.59;;;7.69;63.14
21988;BME280;11158;53.404;-1.510;2023-12-07T05:45:20;99919.94;;;7.92;61.93
21988;BME280;11158;53.404;-1.510;2023-12-07T05:48:04;99922.19;;;7.80;62.94
21988;BME280;11158;53.404;-1.510;2023-12-07T05:50:49;99919.81;;;7.62;63.08
21988;BME280;11158;53.404;-1.510;2023-12-07T05:53:33;99911.25;;;6.89;64.77
21988;BME280;11158;53.404;-1.510;2023-12-07T05:56:20;99909.38;;;6.98;65.55
21988;BME280;11158;53.404;-1.510;2023-12-07T05:59:04;99909.19;;;7.08;64.84
21988;BME280;11158;53.404;-1.510;2023-12-07T06:01:51;99894.09;;;7.31;64.54
21988;BME280;11158;53.404;-1.510;2023-12-07T06:04:41;99901.13;;;7.24;64.33
21988;BME280;11158;53.404;-1.510;2023-12-07T06:07:25;99894.78;;;7.25;64.96
21988;BME280;11158;53.404;-1.510;2023-12-07T06:10:11;99882.59;;;7.08;65.99
21988;BME280;11158;53.404;-1.510;2023-12-07T06:12:56;99881.16;;;6.97;65.25
21988;BME280;11158;53.404;-1.510;2023-12-07T06:15:42;99876.41;;;7.16;65.34
21988;BME280;11158;53.404;-1.510;2023-12-07T06:18:27;99869.34;;;7.54;65.56
21988;BME280;11158;53.404;-1.510;2023-12-07T06:21:13;99871.41;;;7.44;65.54
21988;BME280;11158;53.404;-1.510;2023-12-07T06:23:58;99869.56;;;7.21;65.35
21988;BME280;11158;53.404;-1.510;2023-12-07T06:26:45;99868.13;;;8.17;64.16
21988;BME280;11158;53.404;-1.510;2023-12-07T06:29:29;99865.06;;;7.91;63.76
21988;BME280;11158;53.404;-1.510;2023-12-07T06:32:15;99861.47;;;7.84;64.35
21988;BME280;11158;53.404;-1.510;2023-12-07T06:34:59;99854.56;;;7.74;63.81
21988;BME280;11158;53.404;-1.510;2023-12-07T06:37:44;99843.56;;;7.31;65.33
21988;BME280;11158;53.404;-1.510;2023-12-07T06:40:28;99840.91;;;7.31;66.09
21988;BME280;11158;53.404;-1.510;2023-12-07T06:43:12;99833.72;;;7.40;66.62
21988;BME280;11158;53.404;-1.510;2023-12-07T06:45:56;99825.53;;;7.19;66.37
21988;BME280;11158;53.404;-1.510;2023-12-07T06:48:41;99825.97;;;7.30;66.74
21988;BME280;11158;53.404;-1.510;2023-12-07T06:51:25;99830.31;;;6.69;68.15
21988;BME280;11158;53.404;-1.510;2023-12-07T06:54:10;99823.94;;;7.09;67.21
21988;BME280;11158;53.404;-1.510;2023-12-07T06:56:54;99822.09;;;7.10;67.21
21988;BME280;11158;53.404;-1.510;2023-12-07T06:59:38;99813.53;;;7.69;65.46
21988;BME280;11158;53.404;-1.510;2023-12-07T07:02:22;99812.00;;;7.05;67.10
21988;BME280;11158;53.404;-1.510;2023-12-07T07:05:09;99804.53;;;7.32;67.21
21988;BME280;11158;53.404;-1.510;2023-12-07T07:07:55;99799.84;;;7.11;67.19
21988;BME280;11158;53.404;-1.510;2023-12-07T07:10:39;99800.19;;;7.54;66.94
21988;BME280;11158;53.404;-1.510;2023-12-07T07:13:24;99787.16;;;8.12;65.11
21988;BME280;11158;53.404;-1.510;2023-12-07T07:16:08;99786.97;;;7.84;64.75
21988;BME280;11158;53.404;-1.510;2023-12-07T07:18:53;99781.94;;;8.48;63.98
21988;BME280;11158;53.404;-1.510;2023-12-07T07:21:37;99781.84;;;8.12;65.11
21988;BME280;11158;53.404;-1.510;2023-12-07T07:24:21;99780.19;;;8.26;63.77
21988;BME280;11158;53.404;-1.510;2023-12-07T07:27:05;99778.16;;;8.28;63.85
21988;BME280;11158;53.404;-1.510;2023-12-07T07:29:49;99771.28;;;8.48;65.01
21988;BME280;11158;53.404;-1.510;2023-12-07T07:32:33;99766.97;;;8.17;64.02
21988;BME280;11158;53.404;-1.510;2023-12-07T07:35:17;99757.97;;;8.48;64.44
21988;BME280;11158;53.404;-1.510;2023-12-07T07:38:01;99765.06;;;8.11;64.94
21988;BME280;11158;53.404;-1.510;2023-12-07T07:40:45;99754.84;;;8.59;63.85
21988;BME280;11158;53.404;-1.510;2023-12-07T07:43:31;99752.72;;;8.55;63.39
21988;BME280;11158;53.404;-1.510;2023-12-07T07:46:15;99757.03;;;8.92;62.41
21988;BME280;11158;53.404;-1.510;2023-12-07T07:48:59;99752.47;;;9.29;62.02
21988;BME280;11158;53.404;-1.510;2023-12-07T07:51:43;99756.13;;;8.64;63.46
21988;BME280;11158;53.404;-1.510;2023-12-07T07:54:27;99752.13;;;8.74;65.31
21988;BME280;11158;53.404;-1.510;2023-12-07T07:57:11;99743.59;;;9.22;62.94
21988;BME280;11158;53.404;-1.510;2023-12-07T07:59:55;99733.91;;;9.42;62.19
21988;BME280;11158;53.404;-1.510;2023-12-07T08:02:40;99751.19;;;9.25;62.13
21988;BME280;11158;53.404;-1.510;2023-12-07T08:05:24;99747.47;;;8.98;62.56
21988;BME280;11158;53.404;-1.510;2023-12-07T08:08:08;99737.13;;;9.10;63.39
21988;BME280;11158;53.404;-1.510;2023-12-07T08:10:52;99736.28;;;8.88;64.54
21988;BME280;11158;53.404;-1.510;2023-12-07T08:13:38;99738.69;;;8.46;64.80
21988;BME280;11158;53.404;-1.510;2023-12-07T08:16:22;99730.56;;;8.69;64.54
21988;BME280;11158;53.404;-1.510;2023-12-07T08:19:07;99718.34;;;8.96;64.01
21988;BME280;11158;53.404;-1.510;2023-12-07T08:21:51;99737.97;;;8.52;66.05
21988;BME280;11158;53.404;-1.510;2023-12-07T08:24:35;99724.25;;;8.55;65.40
21988;BME280;11158;53.404;-1.510;2023-12-07T08:27:20;99720.84;;;9.05;64.87
21988;BME280;11158;53.404;-1.510;2023-12-07T08:30:05;99711.06;;;9.33;64.05
21988;BME280;11158;53.404;-1.510;2023-12-07T08:32:50;99718.75;;;8.57;65.71
21988;BME280;11158;53.404;-1.510;2023-12-07T08:35:34;99704.03;;;9.04;64.86
21988;BME280;11158;53.404;-1.510;2023-12-07T08:38:18;99699.16;;;9.08;63.95
21988;BME280;11158;53.404;-1.510;2023-12-07T08:41:02;99689.38;;;9.15;64.38
21988;BME280;11158;53.404;-1.510;2023-12-07T08:43:46;99686.19;;;9.26;64.41
21988;BME280;11158;53.404;-1.510;2023-12-07T08:46:30;99672.16;;;9.17;64.23
21988;BME280;11158;53.404;-1.510;2023-12-07T08:49:14;99673.28;;;9.58;63.42
21988;BME280;11158;53.404;-1.510;2023-12-07T08:51:59;99671.94;;;9.40;63.21
21988;BME280;11158;53.404;-1.510;2023-12-07T08:54:43;99674.06;;;9.23;63.50
21988;BME280;11158;53.404;-1.510;2023-12-07T08:57:27;99658.78;;;9.39;63.91
21988;BME280;11158;53.404;-1.510;2023-12-07T09:00:11;99662.19;;;9.05;64.56
21988;BME280;11158;53.404;-1.510;2023-12-07T09:02:56;99653.31;;;9.19;64.49
21988;BME280;11158;53.404;-1.510;2023-12-07T09:05:40;99649.50;;;9.63;63.41
21988;BME280;11158;53.404;-1.510;2023-12-07T09:08:24;99653.31;;;9.19;64.07
21988;BME280;11158;53.404;-1.510;2023-12-07T09:11:08;99655.34;;;8.95;65.78
21988;BME280;11158;53.404;-1.510;2023-12-07T09:13:53;99637.97;;;9.56;64.25
21988;BME280;11158;53.404;-1.510;2023-12-07T09:16:44;99633.78;;;9.12;64.71
21988;BME280;11158;53.404;-1.510;2023-12-07T09:19:28;99630.41;;;9.31;64.88
21988;BME280;11158;53.404;-1.510;2023-12-07T09:22:12;99619.94;;;9.30;64.13
21988;BME280;11158;53.404;-1.510;2023-12-07T09:25:00;99618.19;;;9.15;64.99
21988;BME280;11158;53.404;-1.510;2023-12-07T09:27:44;99621.09;;;9.20;64.65
21988;BME280;11158;53.404;-1.510;2023-12-07T09:30:28;99619.88;;;9.23;65.12
21988;BME280;11158;53.404;-1.510;2023-12-07T09:33:12;99614.41;;;9.31;64.85
21988;BME280;11158;53.404;-1.510;2023-12-07T09:35:56;99606.31;;;9.53;64.32
21988;BME280;11158;53.404;-1.510;2023-12-07T09:38:41;99616.84;;;9.61;64.00
21988;BME280;11158;53.404;-1.510;2023-12-07T09:41:26;99599.88;;;9.75;64.09
21988;BME280;11158;53.404;-1.510;2023-12-07T09:44:11;99604.09;;;9.21;65.53
21988;BME280;11158;53.404;-1.510;2023-12-07T09:46:55;99594.16;;;9.43;64.94
21988;BME280;11158;53.404;-1.510;2023-12-07T09:49:39;99601.06;;;8.75;66.13
21988;BME280;11158;53.404;-1.510;2023-12-07T09:52:23;99593.22;;;9.23;65.67
21988;BME280;11158;53.404;-1.510;2023-12-07T09:55:08;99592.25;;;8.74;66.33
21988;BME280;11158;53.404;-1.510;2023-12-07T09:57:52;99588.59;;;9.38;65.18
21988;BME280;11158;53.404;-1.510;2023-12-07T10:00:40;99582.16;;;9.61;65.11
21988;BME280;11158;53.404;-1.510;2023-12-07T10:03:24;99579.25;;;8.65;66.55
21988;BME280;11158;53.404;-1.510;2023-12-07T10:06:09;99580.88;;;8.87;66.13
21988;BME280;11158;53.404;-1.510;2023-12-07T10:09:03;99572.56;;;9.73;65.81
21988;BME280;11158;53.404;-1.510;2023-12-07T10:11:47;99572.50;;;9.53;64.89
21988;BME280;11158;53.404;-1.510;2023-12-07T10:14:32;99565.41;;;9.74;64.19
21988;BME280;11158;53.404;-1.510;2023-12-07T10:17:17;99561.34;;;9.91;63.33
21988;BME280;11158;53.404;-1.510;2023-12-07T10:20:07;99553.09;;;9.79;64.60
21988;BME280;11158;53.404;-1.510;2023-12-07T10:23:06;99561.56;;;9.41;64.51
21988;BME280;11158;53.404;-1.510;2023-12-07T10:25:52;99549.47;;;10.00;63.43
21988;BME280;11158;53.404;-1.510;2023-12-07T10:28:36;99549.22;;;9.89;63.75
21988;BME280;11158;53.404;-1.510;2023-12-07T10:31:23;99539.50;;;9.68;64.06
21988;BME280;11158;53.404;-1.510;2023-12-07T10:34:07;99529.72;;;9.88;63.08
21988;BME280;11158;53.404;-1.510;2023-12-07T10:36:52;99532.19;;;9.83;63.83
21988;BME280;11158;53.404;-1.510;2023-12-07T10:39:37;99523.09;;;9.71;64.46
21988;BME280;11158;53.404;-1.510;2023-12-07T10:42:24;99526.44;;;9.86;64.53
21988;BME280;11158;53.404;-1.510;2023-12-07T10:45:09;99514.88;;;9.65;63.81
21988;BME280;11158;53.404;-1.510;2023-12-07T10:48:07;99515.66;;;9.59;65.30
21988;BME280;11158;53.404;-1.510;2023-12-07T10:50:53;99503.25;;;10.00;64.70
21988;BME280;11158;53.404;-1.510;2023-12-07T10:53:44;99480.41;;;9.77;63.88
21988;BME280;11158;53.404;-1.510;2023-12-07T10:56:33;99485.78;;;9.91;64.21
21988;BME280;11158;53.404;-1.510;2023-12-07T10:59:19;99470.19;;;10.14;63.29
21988;BME280;11158;53.404;-1.510;2023-12-07T11:02:05;99461.59;;;10.25;62.88
21988;BME280;11158;53.404;-1.510;2023-12-07T11:04:51;99464.88;;;10.21;63.02
21988;BME280;11158;53.404;-1.510;2023-12-07T11:07:50;99463.25;;;10.26;62.27
21988;BME280;11158;53.404;-1.510;2023-12-07T11:10:43;99462.78;;;9.83;64.78
21988;BME280;11158;53.404;-1.510;2023-12-07T11:13:30;99460.34;;;10.21;64.30
21988;BME280;11158;53.404;-1.510;2023-12-07T11:16:15;99449.44;;;10.10;62.96
21988;BME280;11158;53.404;-1.510;2023-12-07T11:18:59;99448.19;;;9.79;64.64
21988;BME280;11158;53.404;-1.510;2023-12-07T11:21:43;99446.81;;;10.56;63.48
21988;BME280;11158;53.404;-1.510;2023-12-07T11:24:27;99436.69;;;10.85;61.99
21988;BME280;11158;53.404;-1.510;2023-12-07T11:27:12;99425.03;;;10.39;62.85
21988;BME280;11158;53.404;-1.510;2023-12-07T11:29:58;99417.88;;;10.33;63.29
21988;BME280;11158;53.404;-1.510;2023-12-07T11:32:44;99424.59;;;9.96;63.64
21988;BME280;11158;53.404;-1.510;2023-12-07T11:35:28;99417.41;;;10.03;64.25
21988;BME280;11158;53.404;-1.510;2023-12-07T11:38:13;99417.22;;;10.24;64.65
21988;BME280;11158;53.404;-1.510;2023-12-07T11:40:59;99419.66;;;10.26;63.64
21988;BME280;11158;53.404;-1.510;2023-12-07T11:43:44;99409.63;;;10.15;64.89
21988;BME280;11158;53.404;-1.510;2023-12-07T11:46:29;99404.25;;;10.28;64.84
21988;BME280;11158;53.404;-1.510;2023-12-07T11:49:13;99401.78;;;9.73;64.36
21988;BME280;11158;53.404;-1.510;2023-12-07T11:51:58;99395.00;;;9.71;65.72
21988;BME280;11158;53.404;-1.510;2023-12-07T11:54:47;99403.06;;;10.17;64.72
21988;BME280;11158;53.404;-1.510;2023-12-07T11:57:31;99387.81;;;9.58;65.63
21988;BME280;11158;53.404;-1.510;2023-12-07T12:00:15;99379.56;;;9.59;65.57
21988;BME280;11158;53.404;-1.510;2023-12-07T12:03:00;99376.97;;;9.93;65.23
21988;BME280;11158;53.404;-1.510;2023-12-07T12:05:44;99370.38;;;10.02;64.61
21988;BME280;11158;53.404;-1.510;2023-12-07T12:08:31;99364.19;;;9.61;65.18
21988;BME280;11158;53.404;-1.510;2023-12-07T12:11:15;99356.84;;;9.90;64.84
21988;BME280;11158;53.404;-1.510;2023-12-07T12:14:00;99353.34;;;9.76;65.74
21988;BME280;11158;53.404;-1.510;2023-12-07T12:16:45;99356.41;;;10.26;64.94
21988;BME280;11158;53.404;-1.510;2023-12-07T12:19:32;99339.78;;;10.38;63.53
21988;BME280;11158;53.404;-1.510;2023-12-07T12:22:18;99331.78;;;10.31;63.79
21988;BME280;11158;53.404;-1.510;2023-12-07T12:25:03;99323.63;;;10.78;63.60
21988;BME280;11158;53.404;-1.510;2023-12-07T12:27:49;99325.16;;;10.47;62.57
21988;BME280;11158;53.404;-1.510;2023-12-07T12:30:34;99319.03;;;10.33;63.65
21988;BME280;11158;53.404;-1.510;2023-12-07T12:33:18;99313.00;;;10.51;62.63
21988;BME280;11158;53.404;-1.510;2023-12-07T12:36:04;99306.94;;;9.91;64.34
21988;BME280;11158;53.404;-1.510;2023-12-07T12:38:50;99299.53;;;10.06;63.46
21988;BME280;11158;53.404;-1.510;2023-12-07T12:41:34;99299.75;;;9.91;64.18
21988;BME280;11158;53.404;-1.510;2023-12-07T12:44:19;99286.06;;;10.59;63.56
21988;BME280;11158;53.404;-1.510;2023-12-07T12:47:05;99291.06;;;10.42;62.93
21988;BME280;11158;53.404;-1.510;2023-12-07T12:49:52;99280.41;;;10.29;62.98
21988;BME280;11158;53.404;-1.510;2023-12-07T12:52:36;99269.25;;;10.52;63.33
21988;BME280;11158;53.404;-1.510;2023-12-07T12:55:22;99263.91;;;10.52;62.44
21988;BME280;11158;53.404;-1.510;2023-12-07T12:58:10;99260.72;;;9.97;64.01
21988;BME280;11158;53.404;-1.510;2023-12-07T13:00:54;99259.94;;;9.76;64.92
21988;BME280;11158;53.404;-1.510;2023-12-07T13:03:39;99243.50;;;9.79;63.93
21988;BME280;11158;53.404;-1.510;2023-12-07T13:06:24;99244.59;;;10.43;63.97
21988;BME280;11158;53.404;-1.510;2023-12-07T13:09:08;99244.44;;;10.32;63.12
21988;BME280;11158;53.404;-1.510;2023-12-07T13:11:52;99233.75;;;10.25;63.27
21988;BME280;11158;53.404;-1.510;2023-12-07T13:14:36;99219.16;;;10.27;63.05
21988;BME280;11158;53.404;-1.510;2023-12-07T13:17:22;99215.88;;;10.19;62.89
21988;BME280;11158;53.404;-1.510;2023-12-07T13:20:07;99219.84;;;10.03;63.59
21988;BME280;11158;53.404;-1.510;2023-12-07T13:22:55;99211.47;;;9.79;63.86
21988;BME280;11158;53.404;-1.510;2023-12-07T13:25:40;99197.44;;;10.11;63.48
21988;BME280;11158;53.404;-1.510;2023-12-07T13:28:25;99211.03;;;9.96;65.37
21988;BME280;11158;53.404;-1.510;2023-12-07T13:31:09;99192.00;;;9.65;64.54
21988;BME280;11158;53.404;-1.510;2023-12-07T13:33:53;99180.53;;;9.52;65.39
21988;BME280;11158;53.404;-1.510;2023-12-07T13:36:39;99168.72;;;10.06;64.62
21988;BME280;11158;53.404;-1.510;2023-12-07T13:39:23;99156.53;;;10.17;64.06
21988;BME280;11158;53.404;-1.510;2023-12-07T13:42:08;99145.03;;;10.16;63.58
21988;BME280;11158;53.404;-1.510;2023-12-07T13:44:54;99132.47;;;9.72;64.84
21988;BME280;11158;53.404;-1.510;2023-12-07T13:47:41;99146.09;;;10.15;65.03
21988;BME280;11158;53.404;-1.510;2023-12-07T13:50:25;99140.19;;;10.00;63.89
21988;BME280;11158;53.404;-1.510;2023-12-07T13:53:09;99135.16;;;9.65;65.28
21988;BME280;11158;53.404;-1.510;2023-12-07T13:55:54;99132.09;;;10.20;64.67
21988;BME280;11158;53.404;-1.510;2023-12-07T13:58:38;99123.09;;;10.07;63.95
21988;BME280;11158;53.404;-1.510;2023-12-07T14:01:23;99118.31;;;10.30;63.09
21988;BME280;11158;53.404;-1.510;2023-12-07T14:04:07;99119.03;;;9.92;64.57
21988;BME280;11158;53.404;-1.510;2023-12-07T14:06:51;99107.44;;;10.18;63.62
21988;BME280;11158;53.404;-1.510;2023-12-07T14:09:37;99094.53;;;9.56;65.02
21988;BME280;11158;53.404;-1.510;2023-12-07T14:12:21;99087.09;;;9.78;64.36
21988;BME280;11158;53.404;-1.510;2023-12-07T14:15:06;99089.38;;;9.68;64.54
21988;BME280;11158;53.404;-1.510;2023-12-07T14:17:52;99080.16;;;10.09;64.03
21988;BME280;11158;53.404;-1.510;2023-12-07T14:20:35;99078.34;;;10.03;64.37
21988;BME280;11158;53.404;-1.510;2023-12-07T14:23:20;99088.94;;;10.23;64.35
21988;BME280;11158;53.404;-1.510;2023-12-07T14:26:05;99076.41;;;10.17;63.42
21988;BME280;11158;53.404;-1.510;2023-12-07T14:28:50;99078.16;;;10.43;62.54
21988;BME280;11158;53.404;-1.510;2023-12-07T14:31:34;99072.13;;;9.64;64.75